createdAt,value
2022-11-03T00:03:19.332Z,9.93
2022-11-03T00:08:21.170Z,9.83
2022-11-03T00:13:23.008Z,9.71
2022-11-03T00:18:24.931Z,9.64
2022-11-03T00:23:28.897Z,9.59
2022-11-03T00:28:32.599Z,9.55
2022-11-03T00:33:35.085Z,9.53
2022-11-03T00:38:37.798Z,9.51
2022-11-03T00:43:40.383Z,9.47
2022-11-03T00:48:42.704Z,9.43
2022-11-03T00:53:51.187Z,9.38
2022-11-03T00:58:54.323Z,9.33
2022-11-03T01:04:16.453Z,9.28
2022-11-03T01:09:19.742Z,9.28
2022-11-03T01:14:21.721Z,9.25
2022-11-03T01:19:25.362Z,9.21
2022-11-03T01:24:27.312Z,9.17
2022-11-03T01:29:29.212Z,9.14
2022-11-03T01:34:31.968Z,9.09
2022-11-03T01:39:34.222Z,9.08
2022-11-03T01:44:39.825Z,9.05
2022-11-03T01:49:45.456Z,9.01
2022-11-03T01:54:52.979Z,8.99
2022-11-03T01:59:58.604Z,8.96
2022-11-03T02:05:03.365Z,8.91
2022-11-03T02:10:06.430Z,8.88
2022-11-03T02:15:10.677Z,8.86
2022-11-03T02:20:22.716Z,8.84
2022-11-03T02:25:47.876Z,8.86
2022-11-03T02:31:16.220Z,8.83
2022-11-03T02:36:33.346Z,8.81
2022-11-03T02:41:38.225Z,8.82
2022-11-03T02:46:42.887Z,8.85
2022-11-03T02:51:44.846Z,8.86
2022-11-03T02:56:54.087Z,8.87
2022-11-03T03:02:07.018Z,8.86
2022-11-03T03:07:32.469Z,8.81
2022-11-03T03:12:38.023Z,8.75
2022-11-03T03:17:52.610Z,8.71
2022-11-03T03:23:15.853Z,8.65
2022-11-03T03:28:24.893Z,8.58
2022-11-03T03:38:44.133Z,8.55
2022-11-03T03:43:46.726Z,8.55
2022-11-03T03:48:49.220Z,8.52
2022-11-03T03:53:53.270Z,8.47
2022-11-03T03:58:55.091Z,8.41
2022-11-03T04:03:57.281Z,8.36
2022-11-03T04:08:59.084Z,8.31
2022-11-03T04:14:19.480Z,8.24
2022-11-03T04:19:39.724Z,8.20
2022-11-03T04:24:41.702Z,8.18
2022-11-03T04:29:43.565Z,8.16
2022-11-03T04:34:47.411Z,8.13
2022-11-03T04:39:49.302Z,8.14
2022-11-03T04:44:51.248Z,8.12
2022-11-03T04:49:53.171Z,8.10
2022-11-03T04:54:55.008Z,8.08
2022-11-03T04:59:57.085Z,8.05
2022-11-03T05:04:59.524Z,8.01
2022-11-03T05:10:02.849Z,7.97
2022-11-03T05:15:23.351Z,7.96
2022-11-03T05:20:49.627Z,7.95
2022-11-03T05:25:54.338Z,7.94
2022-11-03T05:30:57.516Z,7.98
2022-11-03T05:36:08.301Z,7.99
2022-11-03T05:41:21.048Z,7.97
2022-11-03T05:46:24.288Z,7.97
2022-11-03T05:51:32.921Z,7.94
2022-11-03T05:56:35.280Z,7.91
2022-11-03T06:01:39.923Z,7.89
2022-11-03T06:06:41.902Z,7.86
2022-11-03T06:11:44.347Z,7.86
2022-11-03T06:16:59.923Z,7.88
2022-11-03T06:22:28.036Z,7.92
2022-11-03T06:27:32.224Z,7.96
2022-11-03T06:32:34.211Z,8.01
2022-11-03T06:37:36.337Z,8.08
2022-11-03T06:42:41.453Z,8.08
2022-11-03T06:47:43.311Z,8.10
2022-11-03T06:58:08.074Z,8.15
2022-11-03T07:03:39.049Z,8.20
2022-11-03T07:08:47.013Z,8.30
2022-11-03T07:13:52.309Z,8.47
2022-11-03T07:18:54.195Z,8.63
2022-11-03T07:24:00.092Z,8.76
2022-11-03T07:29:02.895Z,8.86
2022-11-03T07:34:11.169Z,8.91
2022-11-03T07:39:19.761Z,8.94
2022-11-03T07:44:21.925Z,8.98
2022-11-03T07:49:28.712Z,9.06
2022-11-03T07:54:33.784Z,9.15
2022-11-03T07:59:39.226Z,9.30
2022-11-03T08:04:41.000Z,9.50
2022-11-03T08:09:42.871Z,9.70
2022-11-03T08:14:44.687Z,9.90
2022-11-03T08:19:46.685Z,10.08
2022-11-03T08:24:48.691Z,10.23
2022-11-03T08:29:50.713Z,10.36
2022-11-03T08:34:52.990Z,10.52
2022-11-03T08:39:54.942Z,10.67
2022-11-03T08:44:56.861Z,10.81
2022-11-03T08:50:00.192Z,10.90
2022-11-03T08:55:02.152Z,10.97
2022-11-03T09:00:06.298Z,11.11
2022-11-03T09:05:08.882Z,11.26
2022-11-03T09:10:20.157Z,11.39
2022-11-03T09:15:24.366Z,11.51
2022-11-03T09:20:26.813Z,11.65
2022-11-03T09:25:28.745Z,11.81
2022-11-03T09:30:30.873Z,11.99
2022-11-03T09:35:32.763Z,12.09
2022-11-03T09:40:35.977Z,12.18
2022-11-03T09:45:39.297Z,12.28
2022-11-03T09:50:41.511Z,12.42
2022-11-03T09:55:43.577Z,12.54
2022-11-03T10:00:46.278Z,12.56
2022-11-03T10:05:48.542Z,12.61
2022-11-03T10:10:51.630Z,12.69
2022-11-03T10:15:53.765Z,12.77
2022-11-03T10:20:56.696Z,12.84
2022-11-03T10:26:25.007Z,12.93
2022-11-03T10:31:41.022Z,13.02
2022-11-03T10:36:48.048Z,13.05
2022-11-03T10:41:58.757Z,13.04
2022-11-03T10:47:02.929Z,13.04
2022-11-03T10:52:22.682Z,13.04
2022-11-03T10:57:25.578Z,13.08
2022-11-03T11:02:32.289Z,13.16
2022-11-03T11:07:41.987Z,13.20
2022-11-03T11:13:19.355Z,13.24
2022-11-03T11:18:30.224Z,13.29
2022-11-03T11:23:35.342Z,13.34
2022-11-03T11:28:44.922Z,13.40
2022-11-03T11:33:46.833Z,13.44
2022-11-03T11:38:48.690Z,13.46
2022-11-03T11:43:50.748Z,13.46
2022-11-03T11:49:16.806Z,13.44
2022-11-03T11:54:21.167Z,13.42
2022-11-03T11:59:25.576Z,13.43
2022-11-03T12:04:31.682Z,13.44
2022-11-03T12:09:33.994Z,13.44
2022-11-03T12:14:38.287Z,13.45
2022-11-03T12:19:48.919Z,13.48
2022-11-03T12:24:54.916Z,13.46
2022-11-03T12:30:02.397Z,13.46
2022-11-03T12:35:08.341Z,13.46
2022-11-03T12:40:13.754Z,13.44
2022-11-03T12:45:15.646Z,13.37
2022-11-03T12:50:17.515Z,13.29
2022-11-03T12:55:19.588Z,13.23
2022-11-03T13:00:21.534Z,13.17
2022-11-03T13:05:23.548Z,13.12
2022-11-03T13:10:25.408Z,13.09
2022-11-03T13:15:27.287Z,13.06
2022-11-03T13:20:29.084Z,13.04
2022-11-03T13:25:31.947Z,13.00
2022-11-03T13:30:34.041Z,12.96
2022-11-03T13:35:35.921Z,12.92
2022-11-03T13:46:02.676Z,12.78
2022-11-03T13:51:05.075Z,12.69
2022-11-03T13:56:08.904Z,12.58
2022-11-03T14:01:12.453Z,12.47
2022-11-03T14:06:14.479Z,12.42
2022-11-03T14:11:34.766Z,12.37
2022-11-03T14:16:36.683Z,12.34
2022-11-03T14:21:41.046Z,12.30
2022-11-03T14:26:43.507Z,12.25
2022-11-03T14:31:45.826Z,12.19
2022-11-03T14:36:48.108Z,12.14
2022-11-03T14:42:05.630Z,12.09
2022-11-03T14:47:10.690Z,12.06
2022-11-03T14:52:13.392Z,12.03
2022-11-03T14:57:15.383Z,11.99
2022-11-03T15:02:17.514Z,11.96
2022-11-03T15:07:19.425Z,11.92
2022-11-03T15:12:21.164Z,11.88
2022-11-03T15:17:22.944Z,11.84
2022-11-03T15:27:46.754Z,11.80
2022-11-03T15:32:48.769Z,11.80
2022-11-03T15:37:50.817Z,11.81
2022-11-03T15:42:52.793Z,11.81
2022-11-03T15:47:58.281Z,11.80
2022-11-03T15:53:00.465Z,11.77
2022-11-03T15:58:02.522Z,11.76
2022-11-03T16:03:04.607Z,11.75
2022-11-03T16:08:06.848Z,11.73
2022-11-03T16:13:09.111Z,11.72
2022-11-03T16:18:12.213Z,11.69
2022-11-03T16:23:14.084Z,11.69
2022-11-03T16:28:15.889Z,11.71
2022-11-03T16:33:17.764Z,11.68
2022-11-03T16:38:19.669Z,11.71
2022-11-03T16:43:21.502Z,11.74
2022-11-03T16:48:23.373Z,11.73
2022-11-03T16:53:25.428Z,11.71
2022-11-03T16:58:27.387Z,11.72
2022-11-03T17:03:29.361Z,11.73
2022-11-03T17:08:51.848Z,11.76
2022-11-03T17:13:53.530Z,11.74
2022-11-03T17:18:55.564Z,11.73
2022-11-03T17:23:59.886Z,11.75
2022-11-03T17:29:01.930Z,11.75
2022-11-03T17:34:03.974Z,11.77
2022-11-03T17:39:06.229Z,11.80
2022-11-03T17:44:18.622Z,11.85
2022-11-03T17:49:20.629Z,11.89
2022-11-03T17:54:24.358Z,11.94
2022-11-03T17:59:27.739Z,11.96
2022-11-03T18:04:29.654Z,11.98
2022-11-03T18:09:31.504Z,12.02
2022-11-03T18:14:33.377Z,12.03
2022-11-03T18:19:35.320Z,12.05
2022-11-03T18:24:37.242Z,12.07
2022-11-03T18:29:39.286Z,12.11
2022-11-03T18:34:42.067Z,12.14
2022-11-03T18:39:43.943Z,12.18
2022-11-03T18:44:46.648Z,12.21
2022-11-03T18:49:49.216Z,12.24
2022-11-03T18:54:52.416Z,12.28
2022-11-03T18:59:54.535Z,12.30
2022-11-03T19:04:56.553Z,12.32
2022-11-03T19:09:58.799Z,12.31
2022-11-03T19:15:00.822Z,12.29
2022-11-03T19:20:14.095Z,12.29
2022-11-03T19:25:16.603Z,12.27
2022-11-03T19:30:20.208Z,12.28
2022-11-03T19:35:35.453Z,12.30
2022-11-03T19:40:59.984Z,12.24
2022-11-03T19:46:03.137Z,12.17
2022-11-03T19:51:06.421Z,12.13
2022-11-03T19:56:09.959Z,12.12
2022-11-03T20:01:11.915Z,12.10
2022-11-03T20:06:18.220Z,12.10
2022-11-03T20:11:22.102Z,12.08
2022-11-03T20:16:24.689Z,12.05
2022-11-03T20:21:32.994Z,12.04
2022-11-03T20:26:36.676Z,12.05
2022-11-03T20:31:38.819Z,12.05
2022-11-03T20:36:42.003Z,12.00
2022-11-03T20:41:54.496Z,11.98
2022-11-03T20:46:56.445Z,11.96
2022-11-03T20:51:58.618Z,11.95
2022-11-03T20:57:00.463Z,11.93
2022-11-03T21:02:02.587Z,11.94
2022-11-03T21:07:05.579Z,11.94
2022-11-03T21:12:12.081Z,11.94
2022-11-03T21:17:32.902Z,11.93
2022-11-03T21:22:54.059Z,11.91
2022-11-03T21:27:59.586Z,11.86
2022-11-03T21:33:01.459Z,11.85
2022-11-03T21:38:03.503Z,11.84
2022-11-03T21:43:23.937Z,11.85
2022-11-03T21:48:44.267Z,11.83
2022-11-03T21:53:47.061Z,11.82
2022-11-03T21:58:48.827Z,11.84
2022-11-03T22:03:50.562Z,11.85
2022-11-03T22:08:52.900Z,11.86
2022-11-03T22:14:00.017Z,11.85
2022-11-03T22:19:20.382Z,11.85
2022-11-03T22:24:40.742Z,11.84
2022-11-03T22:30:01.066Z,11.83
2022-11-03T22:35:22.816Z,11.81
2022-11-03T22:40:43.097Z,11.79
2022-11-03T22:45:51.256Z,11.78
2022-11-03T22:51:06.609Z,11.79
2022-11-03T22:56:09.086Z,11.81
2022-11-03T23:01:19.079Z,11.86
2022-11-03T23:06:26.489Z,11.86
2022-11-03T23:11:32.763Z,11.85
2022-11-03T23:16:40.655Z,11.86
2022-11-03T23:21:44.192Z,11.87
2022-11-03T23:26:47.323Z,11.82
2022-11-03T23:31:49.142Z,11.78
2022-11-03T23:36:51.388Z,11.78
2022-11-03T23:41:53.131Z,11.77
2022-11-03T23:47:13.429Z,11.78
2022-11-03T23:52:15.143Z,11.78
2022-11-03T23:57:35.479Z,11.76
